createdAt,value
2022-09-28T00:01:21.552Z,81.50
2022-09-28T00:03:50.761Z,81.80
2022-09-28T00:06:20.411Z,81.70
2022-09-28T00:08:50.199Z,81.90
2022-09-28T00:11:20.783Z,81.90
2022-09-28T00:13:53.699Z,82.10
2022-09-28T00:16:24.105Z,82.10
2022-09-28T00:18:52.346Z,82.30
2022-09-28T00:21:24.322Z,82.30
2022-09-28T00:24:12.995Z,82.40
2022-09-28T00:26:41.198Z,82.50
2022-09-28T00:29:24.471Z,82.40
2022-09-28T00:31:54.408Z,82.50
2022-09-28T00:34:21.541Z,82.70
2022-09-28T00:36:48.856Z,82.80
2022-09-28T00:39:17.049Z,82.80
2022-09-28T00:41:45.751Z,82.80
2022-09-28T00:44:24.611Z,82.80
2022-09-28T00:46:54.674Z,82.90
2022-09-28T00:49:38.424Z,83.10
2022-09-28T00:52:09.456Z,83.10
2022-09-28T00:54:36.759Z,83.10
2022-09-28T00:57:05.185Z,83.10
2022-09-28T00:59:33.775Z,83.10
2022-09-28T01:02:01.918Z,83.10
2022-09-28T01:04:31.051Z,83.20
2022-09-28T01:06:59.421Z,83.40
2022-09-28T01:09:27.718Z,83.30
2022-09-28T01:11:55.246Z,83.10
2022-09-28T01:14:25.766Z,83.20
2022-09-28T01:16:52.914Z,83.40
2022-09-28T01:20:07.076Z,83.60
2022-09-28T01:22:35.487Z,83.70
2022-09-28T01:25:13.622Z,83.50
2022-09-28T01:27:50.757Z,83.30
2022-09-28T01:30:20.706Z,83.70
2022-09-28T01:33:12.265Z,84.00
2022-09-28T01:35:58.865Z,83.90
2022-09-28T01:38:36.895Z,83.80
2022-09-28T01:41:05.041Z,84.00
2022-09-28T01:43:39.308Z,84.30
2022-09-28T01:46:22.644Z,84.40
2022-09-28T01:48:55.700Z,84.30
2022-09-28T01:51:36.182Z,84.10
2022-09-28T01:54:16.858Z,84.30
2022-09-28T01:57:19.750Z,84.70
2022-09-28T02:00:13.247Z,84.90
2022-09-28T02:03:24.539Z,85.10
2022-09-28T02:06:05.736Z,85.30
2022-09-28T02:08:41.178Z,85.30
2022-09-28T02:11:19.511Z,85.50
2022-09-28T02:13:48.580Z,85.60
2022-09-28T02:16:41.403Z,85.60
2022-09-28T02:19:31.945Z,85.70
2022-09-28T02:22:01.969Z,85.90
2022-09-28T02:24:34.327Z,85.90
2022-09-28T02:27:07.724Z,86.10
2022-09-28T02:29:34.852Z,86.30
2022-09-28T02:32:02.009Z,86.40
2022-09-28T02:34:29.257Z,86.80
2022-09-28T02:36:56.281Z,87.50
2022-09-28T02:39:23.353Z,88.00
2022-09-28T02:42:08.390Z,88.60
2022-09-28T02:44:57.949Z,89.00
2022-09-28T02:48:07.186Z,89.30
2022-09-28T02:50:44.860Z,89.10
2022-09-28T02:53:29.834Z,88.80
2022-09-28T02:56:05.694Z,89.20
2022-09-28T02:58:55.020Z,89.00
2022-09-28T03:01:25.041Z,89.10
2022-09-28T03:03:58.254Z,89.10
2022-09-28T03:07:04.012Z,89.20
2022-09-28T03:09:42.454Z,89.40
2022-09-28T03:12:14.207Z,89.60
2022-09-28T03:14:41.443Z,89.60
2022-09-28T03:17:08.600Z,90.00
2022-09-28T03:19:36.834Z,90.30
2022-09-28T03:22:05.615Z,90.30
2022-09-28T03:24:32.589Z,90.40
2022-09-28T03:26:59.547Z,90.40
2022-09-28T03:29:27.001Z,90.40
2022-09-28T03:31:59.882Z,90.40
2022-09-28T03:34:26.879Z,90.30
2022-09-28T03:36:54.247Z,90.20
2022-09-28T03:39:21.271Z,90.30
2022-09-28T03:41:48.340Z,90.40
2022-09-28T03:44:17.054Z,90.40
2022-09-28T03:46:44.161Z,90.50
2022-09-28T03:49:11.239Z,90.40
2022-09-28T03:51:38.314Z,90.40
2022-09-28T03:54:05.682Z,90.40
2022-09-28T03:56:32.678Z,90.40
2022-09-28T03:58:59.756Z,90.30
2022-09-28T04:01:27.514Z,90.40
2022-09-28T04:03:57.691Z,90.50
2022-09-28T04:06:26.079Z,90.50
2022-09-28T04:08:53.571Z,90.50
2022-09-28T04:11:20.923Z,90.50
2022-09-28T04:13:50.019Z,90.60
2022-09-28T04:16:18.615Z,90.60
2022-09-28T04:18:55.404Z,90.70
2022-09-28T04:21:41.061Z,90.60
2022-09-28T04:24:11.441Z,90.70
2022-09-28T04:26:38.589Z,90.70
2022-09-28T04:29:17.906Z,90.80
2022-09-28T04:31:51.859Z,90.80
2022-09-28T04:34:22.233Z,90.80
2022-09-28T04:36:49.967Z,90.80
2022-09-28T04:39:19.138Z,90.80
2022-09-28T04:41:49.719Z,90.90
2022-09-28T04:44:17.177Z,90.90
2022-09-28T04:46:45.845Z,90.90
2022-09-28T04:49:39.081Z,90.90
2022-09-28T04:52:18.830Z,90.90
2022-09-28T04:54:49.086Z,91.00
2022-09-28T04:57:16.813Z,91.10
2022-09-28T04:59:43.934Z,91.10
2022-09-28T05:02:12.051Z,91.20
2022-09-28T05:05:14.077Z,91.30
2022-09-28T05:07:59.174Z,91.30
2022-09-28T05:10:26.404Z,91.40
2022-09-28T05:12:53.508Z,91.40
2022-09-28T05:15:20.574Z,91.40
2022-09-28T05:17:48.734Z,91.40
2022-09-28T05:20:41.209Z,91.40
2022-09-28T05:23:11.338Z,91.40
2022-09-28T05:25:42.837Z,91.40
2022-09-28T05:28:25.445Z,91.40
2022-09-28T05:31:12.694Z,91.40
2022-09-28T05:33:58.095Z,91.40
2022-09-28T05:36:27.466Z,91.40
2022-09-28T05:38:54.512Z,91.40
2022-09-28T05:41:21.781Z,91.50
2022-09-28T05:43:48.864Z,91.50
2022-09-28T05:46:16.661Z,91.50
2022-09-28T05:48:43.803Z,91.70
2022-09-28T05:51:10.932Z,91.80
2022-09-28T05:53:38.177Z,91.90
2022-09-28T05:56:05.631Z,91.90
2022-09-28T05:58:35.425Z,91.90
2022-09-28T06:01:02.921Z,91.80
2022-09-28T06:03:30.872Z,91.70
2022-09-28T06:06:01.444Z,91.70
2022-09-28T06:08:30.789Z,91.70
2022-09-28T06:11:12.530Z,91.50
2022-09-28T06:13:42.646Z,91.40
2022-09-28T06:16:16.765Z,91.50
2022-09-28T06:18:44.005Z,91.50
2022-09-28T06:21:29.517Z,91.50
2022-09-28T06:23:56.514Z,91.50
2022-09-28T06:26:25.084Z,91.50
2022-09-28T06:28:51.990Z,91.50
2022-09-28T06:31:23.702Z,91.50
2022-09-28T06:33:51.881Z,91.50
2022-09-28T06:36:19.789Z,91.50
2022-09-28T06:38:47.297Z,91.40
2022-09-28T06:41:15.537Z,91.20
2022-09-28T06:43:43.604Z,91.30
2022-09-28T06:46:14.339Z,91.30
2022-09-28T06:49:10.461Z,91.20
2022-09-28T06:51:56.531Z,91.20
2022-09-28T06:54:43.470Z,91.00
2022-09-28T06:57:33.339Z,91.00
2022-09-28T07:00:00.381Z,91.20
2022-09-28T07:02:27.382Z,91.20
2022-09-28T07:05:03.489Z,91.20
2022-09-28T07:07:42.934Z,91.10
2022-09-28T07:10:47.265Z,91.10
2022-09-28T07:13:51.365Z,91.10
2022-09-28T07:16:26.672Z,91.00
2022-09-28T07:18:55.329Z,91.00
2022-09-28T07:21:29.926Z,91.00
2022-09-28T07:24:00.706Z,90.80
2022-09-28T07:26:46.245Z,90.90
2022-09-28T07:29:48.583Z,90.80
2022-09-28T07:32:23.708Z,90.70
2022-09-28T07:34:58.927Z,90.60
2022-09-28T07:37:44.739Z,90.50
2022-09-28T07:40:30.539Z,90.50
2022-09-28T07:43:04.613Z,90.40
2022-09-28T07:45:35.927Z,90.30
2022-09-28T07:48:03.410Z,90.00
2022-09-28T07:50:54.551Z,89.20
2022-09-28T07:53:33.349Z,89.10
2022-09-28T07:56:17.356Z,89.10
2022-09-28T07:59:07.843Z,88.20
2022-09-28T08:01:40.497Z,88.20
2022-09-28T08:04:10.226Z,87.90
2022-09-28T08:06:40.576Z,87.30
2022-09-28T08:09:09.605Z,86.80
2022-09-28T08:11:55.107Z,87.20
2022-09-28T08:14:55.843Z,87.10
2022-09-28T08:17:51.740Z,87.30
2022-09-28T08:20:40.382Z,86.90
2022-09-28T08:23:09.449Z,86.40
2022-09-28T08:25:38.526Z,86.30
2022-09-28T08:28:07.389Z,85.80
2022-09-28T08:30:40.487Z,84.70
2022-09-28T08:33:26.116Z,85.30
2022-09-28T08:36:11.576Z,85.60
2022-09-28T08:39:05.197Z,85.20
2022-09-28T08:42:12.442Z,84.60
2022-09-28T08:47:52.466Z,84.10
2022-09-28T08:50:33.945Z,84.70
2022-09-28T08:53:39.721Z,84.20
2022-09-28T08:56:39.414Z,84.70
2022-09-28T08:59:18.359Z,84.70
2022-09-28T09:02:06.082Z,84.20
2022-09-28T09:04:34.392Z,83.40
2022-09-28T09:08:11.433Z,82.90
2022-09-28T09:10:52.063Z,81.90
2022-09-28T09:13:50.463Z,81.80
2022-09-28T09:16:40.489Z,81.50
2022-09-28T09:19:59.447Z,81.90
2022-09-28T09:23:06.133Z,83.10
2022-09-28T09:25:50.959Z,81.00
2022-09-28T09:28:32.202Z,79.30
2022-09-28T09:31:24.260Z,78.90
2022-09-28T09:33:58.269Z,77.80
2022-09-28T09:36:56.131Z,77.10
2022-09-28T09:40:29.124Z,75.60
2022-09-28T09:43:28.066Z,75.80
2022-09-28T09:46:40.961Z,74.50
2022-09-28T09:49:40.314Z,74.00
2022-09-28T09:52:24.134Z,72.80
2022-09-28T09:54:55.284Z,72.80
2022-09-28T09:57:51.328Z,72.70
2022-09-28T10:00:43.965Z,73.00
2022-09-28T10:03:24.586Z,72.40
2022-09-28T10:06:17.528Z,73.00
2022-09-28T10:09:01.424Z,72.60
2022-09-28T10:11:36.519Z,72.50
2022-09-28T10:14:06.533Z,73.30
2022-09-28T10:16:41.944Z,72.90
2022-09-28T10:19:17.002Z,72.60
2022-09-28T10:22:05.907Z,72.90
2022-09-28T10:24:41.909Z,72.00
2022-09-28T10:27:14.573Z,71.10
2022-09-28T10:30:11.685Z,71.00
2022-09-28T10:32:46.317Z,71.70
2022-09-28T10:35:19.385Z,70.20
2022-09-28T10:37:56.478Z,68.90
2022-09-28T10:40:50.497Z,69.10
2022-09-28T10:43:35.362Z,68.60
2022-09-28T10:46:15.042Z,68.00
2022-09-28T10:49:16.484Z,67.30
2022-09-28T10:51:53.653Z,67.70
2022-09-28T10:54:32.570Z,66.70
2022-09-28T10:57:01.228Z,64.70
2022-09-28T10:59:41.894Z,64.90
2022-09-28T11:02:36.810Z,66.50
2022-09-28T11:05:24.740Z,65.90
2022-09-28T11:07:57.264Z,65.50
2022-09-28T11:10:32.886Z,64.80
2022-09-28T11:13:10.942Z,65.20
2022-09-28T11:15:43.390Z,66.00
2022-09-28T11:18:34.501Z,66.20
2022-09-28T11:21:28.066Z,66.40
2022-09-28T11:24:07.525Z,64.20
2022-09-28T11:26:44.664Z,64.20
2022-09-28T11:29:46.137Z,64.50
2022-09-28T11:32:44.328Z,65.70
2022-09-28T11:35:35.730Z,64.90
2022-09-28T11:38:39.317Z,64.20
2022-09-28T11:41:51.968Z,63.10
2022-09-28T11:44:31.022Z,62.50
2022-09-28T11:47:30.251Z,62.20
2022-09-28T11:50:03.896Z,62.90
2022-09-28T11:52:54.584Z,62.10
2022-09-28T11:55:21.702Z,62.50
2022-09-28T11:58:08.208Z,63.10
2022-09-28T12:00:40.341Z,63.60
2022-09-28T12:03:20.790Z,63.90
2022-09-28T12:05:56.004Z,64.00
2022-09-28T12:08:37.456Z,62.60
2022-09-28T12:11:12.490Z,62.50
2022-09-28T12:14:20.134Z,61.40
2022-09-28T12:17:05.918Z,61.40
2022-09-28T12:19:48.847Z,62.50
2022-09-28T12:22:42.919Z,62.30
2022-09-28T12:25:17.295Z,62.20
2022-09-28T12:27:58.094Z,61.40
2022-09-28T12:30:25.824Z,60.50
2022-09-28T12:33:04.607Z,61.30
2022-09-28T12:35:40.924Z,61.60
2022-09-28T12:38:14.009Z,61.80
2022-09-28T12:41:16.727Z,62.40
2022-09-28T12:44:00.527Z,63.50
2022-09-28T12:46:38.390Z,62.70
2022-09-28T12:49:56.234Z,63.70
2022-09-28T12:52:01.529Z,63.20
2022-09-28T12:54:34.669Z,62.80
2022-09-28T12:57:19.518Z,62.60
2022-09-28T13:00:22.198Z,62.60
2022-09-28T13:03:13.343Z,61.90
2022-09-28T13:05:52.447Z,61.70
2022-09-28T13:08:48.144Z,59.90
2022-09-28T13:11:36.804Z,60.70
2022-09-28T13:14:18.854Z,61.70
2022-09-28T13:16:59.753Z,62.00
2022-09-28T13:19:30.252Z,62.70
2022-09-28T13:22:21.819Z,63.20
2022-09-28T13:24:50.524Z,62.10
2022-09-28T13:27:33.259Z,62.00
2022-09-28T13:30:03.042Z,61.80
2022-09-28T13:32:32.114Z,62.50
2022-09-28T13:35:02.164Z,62.30
2022-09-28T13:37:29.803Z,62.40
2022-09-28T13:39:59.828Z,62.80
2022-09-28T13:42:52.675Z,61.60
2022-09-28T13:45:22.722Z,62.20
2022-09-28T13:48:20.553Z,63.20
2022-09-28T13:51:09.574Z,62.90
2022-09-28T13:54:07.419Z,62.70
2022-09-28T13:56:53.300Z,62.50
2022-09-28T13:59:27.767Z,62.40
2022-09-28T14:02:06.790Z,62.20
2022-09-28T14:05:23.457Z,62.40
2022-09-28T14:08:11.470Z,62.90
2022-09-28T14:10:54.562Z,62.50
2022-09-28T14:13:43.542Z,62.30
2022-09-28T14:16:21.011Z,62.40
2022-09-28T14:19:07.213Z,62.60
2022-09-28T14:22:13.167Z,63.00
2022-09-28T14:24:55.600Z,62.40
2022-09-28T14:27:37.429Z,63.30
2022-09-28T14:30:13.382Z,63.80
2022-09-28T14:32:54.934Z,64.20
2022-09-28T14:35:40.356Z,64.20
2022-09-28T14:38:38.024Z,63.80
2022-09-28T14:41:17.741Z,64.20
2022-09-28T14:43:44.691Z,64.30
2022-09-28T14:46:11.724Z,63.80
2022-09-28T14:48:54.826Z,63.80
2022-09-28T14:51:30.046Z,63.70
2022-09-28T14:54:01.741Z,64.20
2022-09-28T14:56:32.928Z,64.30
2022-09-28T14:59:00.651Z,64.10
2022-09-28T15:01:28.203Z,63.40
2022-09-28T15:03:59.049Z,63.00
2022-09-28T15:06:29.002Z,62.80
2022-09-28T15:08:56.004Z,63.10
2022-09-28T15:11:26.015Z,64.00
2022-09-28T15:14:06.529Z,63.20
2022-09-28T15:16:33.925Z,63.10
2022-09-28T15:19:29.951Z,62.70
2022-09-28T15:21:56.945Z,62.00
2022-09-28T15:24:34.775Z,61.50
2022-09-28T15:27:04.831Z,61.20
2022-09-28T15:29:33.509Z,61.60
2022-09-28T15:32:00.772Z,61.60
2022-09-28T15:34:51.607Z,61.70
2022-09-28T15:37:22.040Z,61.90
2022-09-28T15:39:53.666Z,61.90
2022-09-28T15:42:21.259Z,62.20
2022-09-28T15:45:14.114Z,62.30
2022-09-28T15:47:43.684Z,62.60
2022-09-28T15:50:31.730Z,62.80
2022-09-28T15:53:03.199Z,63.60
2022-09-28T15:55:36.978Z,64.20
2022-09-28T15:58:17.167Z,65.00
2022-09-28T16:00:46.428Z,65.80
2022-09-28T16:03:21.242Z,66.70
2022-09-28T16:06:05.592Z,67.30
2022-09-28T16:08:40.338Z,67.70
2022-09-28T16:11:13.178Z,68.50
2022-09-28T16:13:48.990Z,68.90
2022-09-28T16:16:17.228Z,69.50
2022-09-28T16:18:48.486Z,70.00
2022-09-28T16:21:43.768Z,70.40
2022-09-28T16:24:25.973Z,71.00
2022-09-28T16:27:02.404Z,71.10
2022-09-28T16:29:42.830Z,71.50
2022-09-28T16:32:24.829Z,72.00
2022-09-28T16:35:07.604Z,72.30
2022-09-28T16:37:34.611Z,72.70
2022-09-28T16:40:01.883Z,72.80
2022-09-28T16:42:29.009Z,73.10
2022-09-28T16:44:56.293Z,73.20
2022-09-28T16:47:24.084Z,73.50
2022-09-28T16:49:51.686Z,73.80
2022-09-28T16:52:38.605Z,73.90
2022-09-28T16:55:38.822Z,74.60
2022-09-28T16:58:04.626Z,74.90
2022-09-28T17:00:31.851Z,75.20
2022-09-28T17:02:59.332Z,75.70
2022-09-28T17:05:26.377Z,76.10
2022-09-28T17:08:04.183Z,76.40
2022-09-28T17:11:02.557Z,76.60
2022-09-28T17:13:36.029Z,77.10
2022-09-28T17:16:11.050Z,77.10
2022-09-28T17:18:39.218Z,77.50
2022-09-28T17:21:15.760Z,77.60
2022-09-28T17:23:44.115Z,77.90
2022-09-28T17:26:30.221Z,78.10
2022-09-28T17:29:01.910Z,78.50
2022-09-28T17:31:30.329Z,78.80
2022-09-28T17:33:57.583Z,78.90
2022-09-28T17:36:25.963Z,79.10
2022-09-28T17:38:52.929Z,79.30
2022-09-28T17:41:21.232Z,79.60
2022-09-28T17:43:48.950Z,80.00
2022-09-28T17:46:21.754Z,80.10
2022-09-28T17:48:49.144Z,80.40
2022-09-28T17:51:16.089Z,80.60
2022-09-28T17:53:43.063Z,80.60
2022-09-28T17:56:09.984Z,80.70
2022-09-28T17:58:38.533Z,80.90
2022-09-28T18:01:05.741Z,81.00
2022-09-28T18:03:32.766Z,81.40
2022-09-28T18:06:04.361Z,81.50
2022-09-28T18:08:31.319Z,81.80
2022-09-28T18:10:58.680Z,82.10
2022-09-28T18:13:25.857Z,82.20
2022-09-28T18:15:54.913Z,82.40
2022-09-28T18:18:25.559Z,82.50
2022-09-28T18:20:52.799Z,82.70
2022-09-28T18:23:19.839Z,82.90
2022-09-28T18:25:47.407Z,83.10
2022-09-28T18:28:14.331Z,83.20
2022-09-28T18:30:43.781Z,83.30
2022-09-28T18:33:12.808Z,83.50
2022-09-28T18:35:39.852Z,83.50
2022-09-28T18:38:07.520Z,83.60
2022-09-28T18:40:35.993Z,83.70
2022-09-28T18:43:03.826Z,83.90
2022-09-28T18:45:31.134Z,83.90
2022-09-28T18:47:58.157Z,84.10
2022-09-28T18:50:25.443Z,84.20
2022-09-28T18:52:52.566Z,84.30
2022-09-28T18:55:20.073Z,84.40
2022-09-28T18:57:47.547Z,84.40
2022-09-28T19:00:15.268Z,84.40
2022-09-28T19:02:42.787Z,84.50
2022-09-28T19:05:10.013Z,84.50
2022-09-28T19:07:37.242Z,84.60
2022-09-28T19:10:04.579Z,84.70
2022-09-28T19:12:32.544Z,84.80
2022-09-28T19:14:59.801Z,84.90
2022-09-28T19:17:26.916Z,84.80
2022-09-28T19:19:53.936Z,84.90
2022-09-28T19:22:20.959Z,85.00
2022-09-28T19:24:47.884Z,85.70
2022-09-28T19:27:14.859Z,85.00
2022-09-28T19:29:41.799Z,85.10
2022-09-28T19:32:08.786Z,85.20
2022-09-28T19:34:35.875Z,85.10
2022-09-28T19:37:04.047Z,85.10
2022-09-28T19:39:31.122Z,85.30
2022-09-28T19:41:59.818Z,85.20
2022-09-28T19:44:29.171Z,85.20
2022-09-28T19:47:04.156Z,85.40
2022-09-28T19:49:36.083Z,85.40
2022-09-28T19:52:20.780Z,85.30
2022-09-28T19:54:58.401Z,85.50
2022-09-28T19:57:27.804Z,85.40
2022-09-28T20:00:00.826Z,85.30
2022-09-28T20:02:33.056Z,85.40
2022-09-28T20:05:00.258Z,85.50
2022-09-28T20:07:28.176Z,85.40
2022-09-28T20:09:55.142Z,85.50
2022-09-28T20:12:22.345Z,85.50
2022-09-28T20:14:49.281Z,86.10
2022-09-28T20:17:16.282Z,85.70
2022-09-28T20:19:43.205Z,85.80
2022-09-28T20:22:11.050Z,85.90
2022-09-28T20:24:38.019Z,85.90
2022-09-28T20:27:04.979Z,85.80
2022-09-28T20:29:33.528Z,85.80
2022-09-28T20:32:01.647Z,85.90
2022-09-28T20:34:29.059Z,85.80
2022-09-28T20:36:56.217Z,85.80
2022-09-28T20:39:23.467Z,85.90
2022-09-28T20:41:50.433Z,86.10
2022-09-28T20:44:17.512Z,86.10
2022-09-28T20:46:44.748Z,86.20
2022-09-28T20:49:11.725Z,86.20
2022-09-28T20:51:38.627Z,86.40
2022-09-28T20:54:05.754Z,86.60
2022-09-28T20:56:38.068Z,86.80
2022-09-28T20:59:08.395Z,86.90
2022-09-28T21:01:35.850Z,87.00
2022-09-28T21:04:04.941Z,87.30
2022-09-28T21:06:34.278Z,86.80
2022-09-28T21:09:01.544Z,86.90
2022-09-28T21:11:29.797Z,87.20
2022-09-28T21:13:59.294Z,87.30
2022-09-28T21:16:28.327Z,87.30
2022-09-28T21:18:55.331Z,87.30
2022-09-28T21:21:23.749Z,87.30
2022-09-28T21:23:54.536Z,87.60
2022-09-28T21:26:26.707Z,87.70
2022-09-28T21:29:04.416Z,88.00
2022-09-28T21:31:42.873Z,88.30
2022-09-28T21:34:19.323Z,88.40
2022-09-28T21:36:48.122Z,88.20
2022-09-28T21:39:15.220Z,88.00
2022-09-28T21:41:42.186Z,87.90
2022-09-28T21:44:09.603Z,87.90
2022-09-28T21:46:38.367Z,87.90
2022-09-28T21:49:07.425Z,88.10
2022-09-28T21:51:35.256Z,88.10
2022-09-28T21:54:02.249Z,88.30
2022-09-28T21:56:29.202Z,88.50
2022-09-28T21:58:56.241Z,88.40
2022-09-28T22:01:26.079Z,88.40
2022-09-28T22:03:55.222Z,88.20
2022-09-28T22:06:24.182Z,88.10
2022-09-28T22:08:51.171Z,88.20
2022-09-28T22:11:24.282Z,88.10
2022-09-28T22:13:59.413Z,88.10
2022-09-28T22:16:30.990Z,88.20
2022-09-28T22:18:59.346Z,88.60
2022-09-28T22:21:30.032Z,88.90
2022-09-28T22:24:00.947Z,89.20
2022-09-28T22:26:29.426Z,89.00
2022-09-28T22:28:58.214Z,88.90
2022-09-28T22:31:36.975Z,89.70
2022-09-28T22:34:04.696Z,90.00
2022-09-28T22:36:31.859Z,90.00
2022-09-28T22:38:59.594Z,90.10
2022-09-28T22:41:26.924Z,90.10
2022-09-28T22:43:54.799Z,90.00
2022-09-28T22:46:25.222Z,90.00
2022-09-28T22:48:57.215Z,90.00
2022-09-28T22:51:26.423Z,90.00
2022-09-28T22:53:53.384Z,89.80
2022-09-28T22:56:20.423Z,89.60
2022-09-28T22:58:47.376Z,89.70
2022-09-28T23:01:26.436Z,89.70
2022-09-28T23:03:54.515Z,89.80
2022-09-28T23:06:24.492Z,89.90
2022-09-28T23:08:52.202Z,89.90
2022-09-28T23:11:19.889Z,90.00
2022-09-28T23:13:53.830Z,90.00
2022-09-28T23:16:23.536Z,90.10
2022-09-28T23:18:50.639Z,90.10
2022-09-28T23:21:19.770Z,90.10
2022-09-28T23:23:52.468Z,90.10
2022-09-28T23:26:28.085Z,90.00
2022-09-28T23:28:55.582Z,89.60
2022-09-28T23:31:28.449Z,89.40
2022-09-28T23:34:03.936Z,89.40
2022-09-28T23:36:31.161Z,89.50
2022-09-28T23:38:58.311Z,89.70
2022-09-28T23:41:25.251Z,89.90
2022-09-28T23:43:52.185Z,90.00
2022-09-28T23:46:20.939Z,89.90
2022-09-28T23:48:49.145Z,89.90
2022-09-28T23:51:16.105Z,89.80
2022-09-28T23:53:43.425Z,89.90
2022-09-28T23:56:10.491Z,90.00
2022-09-28T23:58:37.484Z,90.00
